createdAt,value
2022-08-10T00:00:54.895Z,21.32
2022-08-10T00:03:22.606Z,21.26
2022-08-10T00:05:54.769Z,21.19
2022-08-10T00:08:24.097Z,21.29
2022-08-10T00:10:52.754Z,21.36
2022-08-10T00:13:22.176Z,21.30
2022-08-10T00:15:53.739Z,21.30
2022-08-10T00:18:31.402Z,21.36
2022-08-10T00:21:04.680Z,21.28
2022-08-10T00:23:32.404Z,21.28
2022-08-10T00:26:00.515Z,21.23
2022-08-10T00:28:29.710Z,21.19
2022-08-10T00:30:57.321Z,21.25
2022-08-10T00:33:25.242Z,21.23
2022-08-10T00:35:52.922Z,21.25
2022-08-10T00:38:20.618Z,21.14
2022-08-10T00:40:48.387Z,21.12
2022-08-10T00:43:23.071Z,21.08
2022-08-10T00:45:59.499Z,20.99
2022-08-10T00:48:29.897Z,21.08
2022-08-10T00:50:59.147Z,21.00
2022-08-10T00:53:27.368Z,20.98
2022-08-10T00:57:14.613Z,21.00
2022-08-10T00:58:43.468Z,20.96
2022-08-10T01:02:09.500Z,20.96
2022-08-10T01:04:57.792Z,20.88
2022-08-10T01:07:04.059Z,20.88
2022-08-10T01:09:36.007Z,20.83
2022-08-10T01:12:38.749Z,20.76
2022-08-10T01:15:03.372Z,20.76
2022-08-10T01:17:50.118Z,20.71
2022-08-10T01:20:30.285Z,20.72
2022-08-10T01:23:29.770Z,20.59
2022-08-10T01:26:12.538Z,20.63
2022-08-10T01:29:07.813Z,20.61
2022-08-10T01:31:42.827Z,20.69
2022-08-10T01:34:14.673Z,20.73
2022-08-10T01:36:49.275Z,20.65
2022-08-10T01:39:23.609Z,20.63
2022-08-10T01:41:55.885Z,20.58
2022-08-10T01:44:26.878Z,20.64
2022-08-10T01:47:22.407Z,20.58
2022-08-10T01:49:50.258Z,20.52
2022-08-10T01:52:19.107Z,20.42
2022-08-10T01:54:47.302Z,20.45
2022-08-10T01:57:17.809Z,20.45
2022-08-10T01:59:54.521Z,20.37
2022-08-10T02:02:31.660Z,20.33
2022-08-10T02:05:00.709Z,20.29
2022-08-10T02:07:29.808Z,20.46
2022-08-10T02:10:00.861Z,20.33
2022-08-10T02:12:31.715Z,20.30
2022-08-10T02:15:02.439Z,20.31
2022-08-10T02:17:59.563Z,20.29
2022-08-10T02:20:25.584Z,20.23
2022-08-10T02:22:56.739Z,20.29
2022-08-10T02:25:40.960Z,20.20
2022-08-10T02:28:12.311Z,20.19
2022-08-10T02:30:56.375Z,20.17
2022-08-10T02:33:27.783Z,20.14
2022-08-10T02:35:56.742Z,20.05
2022-08-10T02:38:59.300Z,20.05
2022-08-10T02:45:03.201Z,19.86
2022-08-10T02:45:22.918Z,20.01
2022-08-10T02:47:09.200Z,19.90
2022-08-10T02:49:41.786Z,19.79
2022-08-10T02:52:13.136Z,19.86
2022-08-10T02:54:46.977Z,19.77
2022-08-10T02:57:17.707Z,19.95
2022-08-10T02:59:47.454Z,19.86
2022-08-10T03:02:20.850Z,19.85
2022-08-10T03:04:55.118Z,19.78
2022-08-10T03:07:44.288Z,19.76
2022-08-10T03:10:16.990Z,19.76
2022-08-10T03:12:45.360Z,19.70
2022-08-10T03:15:15.700Z,19.83
2022-08-10T03:17:57.856Z,19.74
2022-08-10T03:20:37.896Z,19.64
2022-08-10T03:23:10.159Z,19.69
2022-08-10T03:25:38.128Z,19.79
2022-08-10T03:28:06.247Z,19.74
2022-08-10T03:30:34.573Z,19.78
2022-08-10T03:33:04.262Z,19.71
2022-08-10T03:35:33.389Z,19.67
2022-08-10T03:38:01.381Z,19.69
2022-08-10T03:40:35.853Z,19.72
2022-08-10T03:43:17.190Z,19.75
2022-08-10T03:45:54.270Z,19.65
2022-08-10T03:48:23.794Z,19.61
2022-08-10T03:50:53.109Z,19.56
2022-08-10T03:53:25.298Z,19.70
2022-08-10T03:56:28.672Z,19.57
2022-08-10T03:58:57.528Z,19.48
2022-08-10T04:02:52.386Z,19.46
2022-08-10T04:04:14.662Z,19.68
2022-08-10T04:06:46.650Z,19.57
2022-08-10T04:09:19.053Z,19.60
2022-08-10T04:11:47.181Z,19.64
2022-08-10T04:14:38.013Z,19.44
2022-08-10T04:17:02.475Z,19.46
2022-08-10T04:19:31.362Z,19.45
2022-08-10T04:22:06.199Z,19.58
2022-08-10T04:24:35.374Z,19.47
2022-08-10T04:27:03.630Z,19.54
2022-08-10T04:29:31.417Z,19.41
2022-08-10T04:31:59.106Z,19.45
2022-08-10T04:34:31.658Z,19.40
2022-08-10T04:37:06.739Z,19.47
2022-08-10T04:39:36.502Z,19.44
2022-08-10T04:42:04.816Z,19.56
2022-08-10T04:44:33.475Z,19.42
2022-08-10T04:47:01.143Z,19.41
2022-08-10T04:49:54.930Z,19.49
2022-08-10T04:52:17.942Z,19.40
2022-08-10T04:54:45.563Z,19.37
2022-08-10T04:57:13.289Z,19.45
2022-08-10T04:59:40.970Z,19.41
2022-08-10T05:02:28.566Z,19.40
2022-08-10T05:04:56.273Z,19.53
2022-08-10T05:07:25.317Z,19.43
2022-08-10T05:10:03.972Z,19.44
2022-08-10T05:12:36.292Z,19.44
2022-08-10T05:15:07.238Z,19.57
2022-08-10T05:17:35.788Z,19.59
2022-08-10T05:20:06.740Z,19.59
2022-08-10T05:22:38.110Z,19.64
2022-08-10T05:25:07.843Z,19.64
2022-08-10T05:27:35.890Z,19.76
2022-08-10T05:30:04.493Z,19.86
2022-08-10T05:32:34.348Z,19.90
2022-08-10T05:35:20.546Z,19.95
2022-08-10T05:38:09.033Z,20.10
2022-08-10T05:40:40.918Z,20.05
2022-08-10T05:43:10.616Z,20.16
2022-08-10T05:46:19.939Z,20.20
2022-08-10T05:48:55.463Z,20.25
2022-08-10T05:51:16.388Z,20.11
2022-08-10T05:54:04.108Z,20.32
2022-08-10T05:56:56.663Z,20.39
2022-08-10T06:00:34.372Z,20.44
2022-08-10T06:02:33.261Z,20.47
2022-08-10T06:05:00.001Z,20.58
2022-08-10T06:07:28.188Z,20.63
2022-08-10T06:09:59.202Z,20.85
2022-08-10T06:12:31.346Z,20.85
2022-08-10T06:15:05.336Z,21.01
2022-08-10T06:17:33.925Z,21.09
2022-08-10T06:20:02.377Z,21.15
2022-08-10T06:22:32.376Z,21.20
2022-08-10T06:27:55.446Z,21.14
2022-08-10T06:30:24.664Z,21.31
2022-08-10T06:32:55.287Z,21.31
2022-08-10T06:35:24.449Z,21.41
2022-08-10T06:37:54.062Z,21.69
2022-08-10T06:40:23.898Z,21.53
2022-08-10T06:42:52.090Z,21.58
2022-08-10T06:45:23.468Z,21.74
2022-08-10T06:47:56.883Z,21.99
2022-08-10T06:50:44.703Z,21.97
2022-08-10T06:53:15.448Z,22.03
2022-08-10T06:55:56.208Z,22.26
2022-08-10T06:58:27.253Z,22.30
2022-08-10T07:00:56.466Z,22.30
2022-08-10T07:03:27.805Z,22.32
2022-08-10T07:05:55.896Z,22.32
2022-08-10T07:08:24.487Z,22.30
2022-08-10T07:10:54.507Z,22.45
2022-08-10T07:14:16.246Z,22.63
2022-08-10T07:16:13.027Z,22.88
2022-08-10T07:18:43.630Z,22.83
2022-08-10T07:21:12.881Z,22.92
2022-08-10T07:23:57.015Z,22.89
2022-08-10T07:26:30.294Z,22.94
2022-08-10T07:28:58.271Z,23.09
2022-08-10T07:31:54.763Z,23.22
2022-08-10T07:34:28.735Z,23.36
2022-08-10T07:37:01.662Z,23.44
2022-08-10T07:39:59.586Z,23.58
2022-08-10T07:42:21.263Z,23.32
2022-08-10T07:44:50.465Z,23.54
2022-08-10T07:47:52.990Z,23.70
2022-08-10T07:50:16.019Z,23.78
2022-08-10T07:52:44.129Z,23.46
2022-08-10T07:55:14.961Z,23.56
2022-08-10T07:57:46.150Z,23.83
2022-08-10T08:00:15.111Z,24.10
2022-08-10T08:02:47.079Z,24.10
2022-08-10T08:05:53.684Z,24.06
2022-08-10T08:08:03.913Z,23.87
2022-08-10T08:10:32.555Z,24.20
2022-08-10T08:13:03.226Z,24.14
2022-08-10T08:16:20.900Z,23.86
2022-08-10T08:18:25.336Z,24.11
2022-08-10T08:20:54.452Z,24.14
2022-08-10T08:24:05.430Z,24.20
2022-08-10T08:26:12.124Z,24.58
2022-08-10T08:28:45.913Z,24.90
2022-08-10T08:31:15.534Z,25.08
2022-08-10T08:33:45.330Z,24.95
2022-08-10T08:36:16.005Z,25.02
2022-08-10T08:38:44.335Z,25.14
2022-08-10T08:41:25.619Z,25.40
2022-08-10T08:44:05.742Z,25.60
2022-08-10T08:46:59.468Z,25.53
2022-08-10T08:50:08.525Z,25.28
2022-08-10T08:52:39.110Z,25.23
2022-08-10T08:55:50.236Z,25.56
2022-08-10T08:58:14.702Z,25.60
2022-08-10T09:00:47.199Z,25.93
2022-08-10T09:03:28.855Z,25.92
2022-08-10T09:06:09.218Z,26.11
2022-08-10T09:09:08.358Z,26.23
2022-08-10T09:11:45.902Z,26.30
2022-08-10T09:14:26.285Z,26.53
2022-08-10T09:17:00.332Z,26.52
2022-08-10T09:19:36.513Z,26.42
2022-08-10T09:22:18.265Z,26.64
2022-08-10T09:24:53.376Z,26.43
2022-08-10T09:27:22.974Z,26.56
2022-08-10T09:29:55.572Z,26.62
2022-08-10T09:36:19.460Z,26.66
2022-08-10T09:36:25.988Z,26.91
2022-08-10T09:38:25.945Z,27.17
2022-08-10T09:41:04.974Z,27.12
2022-08-10T09:43:43.549Z,27.23
2022-08-10T09:46:17.624Z,27.20
2022-08-10T09:48:51.733Z,27.21
2022-08-10T09:51:47.293Z,27.32
2022-08-10T09:54:30.006Z,27.50
2022-08-10T09:57:44.663Z,27.53
2022-08-10T10:00:01.975Z,27.54
2022-08-10T10:02:36.439Z,27.45
2022-08-10T10:05:13.424Z,27.52
2022-08-10T10:07:46.887Z,27.60
2022-08-10T10:10:18.180Z,27.54
2022-08-10T10:12:52.295Z,27.75
2022-08-10T10:15:31.189Z,27.81
2022-08-10T10:18:10.419Z,27.93
2022-08-10T10:20:42.169Z,27.82
2022-08-10T10:23:17.708Z,27.80
2022-08-10T10:25:52.593Z,27.86
2022-08-10T10:28:59.749Z,27.97
2022-08-10T10:31:26.117Z,27.93
2022-08-10T10:34:02.413Z,28.04
2022-08-10T10:36:31.671Z,28.15
2022-08-10T10:39:00.316Z,28.15
2022-08-10T10:41:57.375Z,28.39
2022-08-10T10:44:41.974Z,27.85
2022-08-10T10:47:20.648Z,27.78
2022-08-10T10:49:53.604Z,27.94
2022-08-10T10:52:30.924Z,27.86
2022-08-10T10:55:06.767Z,27.89
2022-08-10T10:57:58.451Z,27.99
2022-08-10T11:00:30.725Z,28.04
2022-08-10T11:03:09.165Z,28.16
2022-08-10T11:05:44.660Z,28.37
2022-08-10T11:08:18.232Z,28.51
2022-08-10T11:10:52.645Z,28.57
2022-08-10T11:14:25.529Z,28.63
2022-08-10T11:16:18.283Z,28.78
2022-08-10T11:18:56.133Z,28.52
2022-08-10T11:21:38.381Z,28.74
2022-08-10T11:24:48.457Z,29.15
2022-08-10T11:27:03.854Z,29.14
2022-08-10T11:29:36.178Z,28.65
2022-08-10T11:32:07.620Z,28.56
2022-08-10T11:35:11.930Z,28.23
2022-08-10T11:38:31.559Z,28.37
2022-08-10T11:40:44.053Z,28.81
2022-08-10T11:43:17.258Z,28.98
2022-08-10T11:45:52.571Z,29.17
2022-08-10T11:48:54.440Z,29.24
2022-08-10T11:51:20.875Z,29.41
2022-08-10T11:53:52.396Z,29.54
2022-08-10T11:56:41.035Z,29.54
2022-08-10T11:59:26.820Z,29.60
2022-08-10T12:01:56.138Z,29.48
2022-08-10T12:04:24.761Z,29.54
2022-08-10T12:06:56.007Z,29.61
2022-08-10T12:10:08.702Z,29.35
2022-08-10T12:12:14.568Z,29.76
2022-08-10T12:14:46.509Z,29.81
2022-08-10T12:17:18.160Z,29.65
2022-08-10T12:20:01.447Z,30.05
2022-08-10T12:22:34.896Z,29.88
2022-08-10T12:25:05.093Z,29.65
2022-08-10T12:27:40.019Z,29.75
2022-08-10T12:30:09.766Z,29.83
2022-08-10T12:32:43.312Z,30.08
2022-08-10T12:35:21.901Z,30.16
2022-08-10T12:38:01.080Z,29.66
2022-08-10T12:40:35.754Z,30.00
2022-08-10T12:44:05.294Z,30.11
2022-08-10T12:46:06.811Z,30.12
2022-08-10T12:48:38.149Z,29.60
2022-08-10T12:51:09.142Z,29.86
2022-08-10T12:53:45.479Z,29.56
2022-08-10T12:56:22.076Z,29.76
2022-08-10T12:58:58.041Z,29.95
2022-08-10T13:02:06.383Z,29.78
2022-08-10T13:04:23.302Z,29.80
2022-08-10T13:06:52.557Z,29.70
2022-08-10T13:09:22.806Z,29.82
2022-08-10T13:12:35.450Z,30.14
2022-08-10T13:14:50.876Z,30.19
2022-08-10T13:17:23.464Z,30.38
2022-08-10T13:19:55.668Z,30.16
2022-08-10T13:22:28.300Z,30.24
2022-08-10T13:25:01.554Z,30.06
2022-08-10T13:28:01.086Z,29.97
2022-08-10T13:30:37.319Z,30.11
2022-08-10T13:33:06.334Z,30.26
2022-08-10T13:35:35.443Z,30.43
2022-08-10T13:38:03.792Z,30.25
2022-08-10T13:40:32.788Z,29.68
2022-08-10T13:43:02.064Z,29.75
2022-08-10T13:45:31.730Z,30.03
2022-08-10T13:48:10.888Z,30.20
2022-08-10T13:50:39.945Z,30.52
2022-08-10T13:53:14.953Z,30.34
2022-08-10T13:55:53.598Z,30.17
2022-08-10T13:58:27.256Z,30.13
2022-08-10T14:03:50.172Z,29.68
2022-08-10T14:06:19.582Z,29.84
2022-08-10T14:08:50.102Z,30.02
2022-08-10T14:11:19.957Z,30.05
2022-08-10T14:13:53.346Z,29.85
2022-08-10T14:16:23.466Z,29.79
2022-08-10T14:18:53.500Z,29.89
2022-08-10T14:21:22.037Z,29.64
2022-08-10T14:23:52.707Z,29.83
2022-08-10T14:26:24.756Z,30.14
2022-08-10T14:28:56.043Z,30.41
2022-08-10T14:31:33.451Z,30.46
2022-08-10T14:34:03.711Z,30.29
2022-08-10T14:36:39.595Z,30.24
2022-08-10T14:39:08.327Z,30.24
2022-08-10T14:42:01.593Z,30.24
2022-08-10T14:44:26.431Z,30.28
2022-08-10T14:46:59.508Z,30.33
2022-08-10T14:49:29.774Z,30.28
2022-08-10T14:52:19.057Z,30.39
2022-08-10T14:54:56.589Z,30.29
2022-08-10T14:58:11.364Z,30.41
2022-08-10T15:00:30.719Z,30.33
2022-08-10T15:03:36.553Z,30.28
2022-08-10T15:05:54.155Z,30.33
2022-08-10T15:08:28.314Z,30.17
2022-08-10T15:10:58.645Z,30.11
2022-08-10T15:13:34.603Z,30.09
2022-08-10T15:16:13.684Z,30.12
2022-08-10T15:18:58.038Z,30.38
2022-08-10T15:21:29.168Z,30.42
2022-08-10T15:24:14.850Z,30.44
2022-08-10T15:26:51.277Z,30.48
2022-08-10T15:29:26.767Z,30.33
2022-08-10T15:32:12.601Z,30.28
2022-08-10T15:35:01.841Z,30.09
2022-08-10T15:37:40.088Z,30.20
2022-08-10T15:40:26.041Z,30.28
2022-08-10T15:43:00.660Z,30.19
2022-08-10T15:45:28.862Z,29.84
2022-08-10T15:48:03.716Z,29.76
2022-08-10T15:50:39.924Z,29.82
2022-08-10T15:53:13.941Z,29.84
2022-08-10T15:55:48.901Z,29.81
2022-08-10T15:58:23.850Z,30.08
2022-08-10T16:02:03.859Z,30.03
2022-08-10T16:04:08.519Z,29.87
2022-08-10T16:06:41.609Z,29.92
2022-08-10T16:10:23.542Z,29.81
2022-08-10T16:12:06.190Z,29.81
2022-08-10T16:14:36.968Z,29.88
2022-08-10T16:17:10.330Z,29.74
2022-08-10T16:19:39.841Z,29.99
2022-08-10T16:22:36.622Z,30.31
2022-08-10T16:24:58.722Z,30.35
2022-08-10T16:27:29.384Z,30.22
2022-08-10T16:30:00.134Z,29.81
2022-08-10T16:32:30.201Z,29.45
2022-08-10T16:34:58.551Z,29.56
2022-08-10T16:37:56.593Z,29.67
2022-08-10T16:40:25.475Z,29.66
2022-08-10T16:42:54.625Z,29.75
2022-08-10T16:45:31.303Z,29.94
2022-08-10T16:47:59.414Z,30.02
2022-08-10T16:50:29.105Z,29.83
2022-08-10T16:53:02.083Z,29.92
2022-08-10T16:55:48.211Z,29.71
2022-08-10T16:58:20.764Z,29.64
2022-08-10T17:00:50.522Z,29.67
2022-08-10T17:03:22.425Z,29.55
2022-08-10T17:06:13.431Z,29.38
2022-08-10T17:08:48.166Z,29.30
2022-08-10T17:11:18.329Z,29.51
2022-08-10T17:13:46.287Z,29.23
2022-08-10T17:16:14.592Z,29.08
2022-08-10T17:18:46.572Z,28.94
2022-08-10T17:21:16.711Z,28.87
2022-08-10T17:23:49.814Z,28.86
2022-08-10T17:26:20.715Z,28.85
2022-08-10T17:29:08.358Z,28.62
2022-08-10T17:31:55.040Z,28.54
2022-08-10T17:34:28.090Z,28.49
2022-08-10T17:36:58.690Z,28.44
2022-08-10T17:39:41.154Z,28.20
2022-08-10T17:42:09.155Z,28.30
2022-08-10T17:44:37.406Z,28.24
2022-08-10T17:47:10.995Z,28.26
2022-08-10T17:49:40.125Z,28.20
2022-08-10T17:52:09.861Z,28.16
2022-08-10T17:54:41.860Z,28.07
2022-08-10T17:57:11.383Z,28.11
2022-08-10T17:59:40.323Z,28.02
2022-08-10T18:02:10.203Z,27.87
2022-08-10T18:04:41.522Z,27.87
2022-08-10T18:07:11.067Z,27.72
2022-08-10T18:09:43.663Z,27.46
2022-08-10T18:12:17.996Z,27.57
2022-08-10T18:14:48.692Z,27.51
2022-08-10T18:17:20.012Z,27.45
2022-08-10T18:19:53.158Z,27.35
2022-08-10T18:22:22.107Z,27.23
2022-08-10T18:24:52.007Z,27.24
2022-08-10T18:27:20.436Z,27.09
2022-08-10T18:29:51.225Z,26.96
2022-08-10T18:32:20.259Z,26.96
2022-08-10T18:34:48.792Z,26.90
2022-08-10T18:37:20.273Z,26.81
2022-08-10T18:39:51.296Z,26.74
2022-08-10T18:42:21.231Z,26.67
2022-08-10T18:44:54.266Z,26.65
2022-08-10T18:47:30.491Z,26.48
2022-08-10T18:50:01.668Z,26.44
2022-08-10T18:52:31.819Z,26.34
2022-08-10T18:55:23.056Z,26.25
2022-08-10T18:58:30.843Z,26.12
2022-08-10T19:01:19.123Z,26.08
2022-08-10T19:03:55.232Z,25.72
2022-08-10T19:06:38.441Z,25.69
2022-08-10T19:09:45.507Z,25.73
2022-08-10T19:12:30.202Z,25.70
2022-08-10T19:15:06.655Z,25.57
2022-08-10T19:18:03.959Z,25.57
2022-08-10T19:20:35.269Z,25.59
2022-08-10T19:23:14.164Z,25.38
2022-08-10T19:26:40.916Z,25.38
2022-08-10T19:28:39.418Z,25.25
2022-08-10T19:31:13.444Z,25.37
2022-08-10T19:33:49.853Z,25.32
2022-08-10T19:36:20.779Z,25.37
2022-08-10T19:38:55.620Z,25.20
2022-08-10T19:41:32.107Z,25.05
2022-08-10T19:44:16.615Z,25.31
2022-08-10T19:46:47.168Z,25.01
2022-08-10T19:49:21.653Z,24.93
2022-08-10T19:51:55.324Z,24.84
2022-08-10T19:54:27.235Z,24.88
2022-08-10T19:57:02.044Z,24.90
2022-08-10T20:00:16.164Z,25.01
2022-08-10T20:02:27.181Z,24.84
2022-08-10T20:05:00.947Z,24.89
2022-08-10T20:07:35.237Z,24.77
2022-08-10T20:10:05.682Z,24.72
2022-08-10T20:12:43.724Z,24.70
2022-08-10T20:15:17.354Z,24.55
2022-08-10T20:17:55.065Z,24.26
2022-08-10T20:20:30.451Z,24.21
2022-08-10T20:23:03.951Z,24.10
2022-08-10T20:25:33.184Z,24.11
2022-08-10T20:28:06.371Z,24.15
2022-08-10T20:30:37.587Z,24.24
2022-08-10T20:33:12.547Z,24.12
2022-08-10T20:35:50.315Z,24.00
2022-08-10T20:38:27.156Z,24.11
2022-08-10T20:41:04.331Z,23.95
2022-08-10T20:43:38.956Z,23.95
2022-08-10T20:46:12.314Z,23.95
2022-08-10T20:48:44.795Z,23.65
2022-08-10T20:51:15.717Z,23.61
2022-08-10T20:53:46.887Z,23.73
2022-08-10T20:56:18.684Z,23.60
2022-08-10T20:59:10.214Z,23.53
2022-08-10T21:02:06.599Z,23.58
2022-08-10T21:04:49.769Z,23.51
2022-08-10T21:07:57.856Z,23.44
2022-08-10T21:10:24.126Z,23.46
2022-08-10T21:12:59.099Z,23.36
2022-08-10T21:15:44.660Z,23.25
2022-08-10T21:18:25.423Z,23.17
2022-08-10T21:20:59.482Z,23.16
2022-08-10T21:23:31.083Z,23.07
2022-08-10T21:26:07.427Z,22.99
2022-08-10T21:28:49.991Z,22.96
2022-08-10T21:31:37.558Z,23.08
2022-08-10T21:34:32.142Z,22.85
2022-08-10T21:37:01.065Z,22.79
2022-08-10T21:39:44.551Z,22.75
2022-08-10T21:42:40.609Z,22.81
2022-08-10T21:45:47.564Z,22.71
2022-08-10T21:48:45.124Z,22.76
2022-08-10T21:52:02.111Z,22.68
2022-08-10T21:54:57.157Z,22.60
2022-08-10T21:57:45.571Z,22.47
2022-08-10T22:00:33.297Z,22.47
2022-08-10T22:03:21.559Z,22.50
2022-08-10T22:06:09.607Z,22.41
2022-08-10T22:08:59.678Z,22.38
2022-08-10T22:11:49.117Z,22.41
2022-08-10T22:14:43.021Z,22.42
2022-08-10T22:20:43.122Z,22.32
2022-08-10T22:23:47.700Z,22.28
2022-08-10T22:26:56.517Z,22.24
2022-08-10T22:29:51.763Z,22.16
2022-08-10T22:31:25.965Z,22.28
2022-08-10T22:32:45.016Z,22.05
2022-08-10T22:35:49.676Z,22.07
2022-08-10T22:38:47.087Z,21.96
2022-08-10T22:41:34.150Z,22.02
2022-08-10T22:44:21.840Z,21.97
2022-08-10T22:47:07.037Z,21.81
2022-08-10T22:49:33.718Z,21.85
2022-08-10T22:52:04.751Z,21.82
2022-08-10T22:54:52.173Z,21.85
2022-08-10T22:57:37.927Z,21.84
2022-08-10T23:00:15.065Z,21.74
2022-08-10T23:02:48.707Z,21.81
2022-08-10T23:05:17.236Z,21.79
2022-08-10T23:07:48.693Z,21.76
2022-08-10T23:10:19.112Z,21.79
2022-08-10T23:12:49.877Z,21.72
2022-08-10T23:15:39.404Z,21.70
2022-08-10T23:18:26.713Z,21.60
2022-08-10T23:20:55.077Z,21.55
2022-08-10T23:23:24.319Z,21.55
2022-08-10T23:25:57.463Z,21.42
2022-08-10T23:28:38.273Z,21.38
2022-08-10T23:31:12.263Z,21.31
2022-08-10T23:33:40.574Z,21.32
2022-08-10T23:36:34.194Z,21.27
2022-08-10T23:39:26.959Z,21.24
2022-08-10T23:41:46.729Z,21.19
2022-08-10T23:44:22.151Z,21.15
2022-08-10T23:46:51.350Z,21.07
2022-08-10T23:49:20.184Z,21.06
2022-08-10T23:51:54.832Z,21.20
2022-08-10T23:54:23.791Z,21.06
2022-08-10T23:56:53.644Z,20.98
2022-08-10T23:59:23.895Z,21.15
